Impacts METAR Board
IDs:

KDEN - Denver Intl, CO, US

Updated at: 1300 UTC 25 Jun 2019
Potential Impact None Slight Moderate High
Time 25/01Z 25/02Z 25/03Z 25/04Z 25/05Z 25/06Z 25/07Z 25/08Z 25/09Z 25/10Z 25/11Z 25/12Z 25/13Z
Temp76 69 67 58 65 60 58 56 55 52 55 55 58
Dewpt39 46 44 48 40 43 44 45 44 44 42 41 41
Altim29.94 29.95 29.96 29.98 30.02 30.01 30.01 30.03 30.01 30.01 30.03 30.04 30.05
VIS10 10 10 10 10 10 10 10 10 10 10 10 10
CIG250 250 -- -- 160 160 -- -- -- -- 220 -- --
CoverBKNBKNFEWFEWBKNBKNSCTSCTFEWFEWBKNSCTSCT
FltCatVFRVFRVFRVFRVFRVFRVFRVFRVFRVFRVFRVFRVFR
WX--------------------------
WDir11012012017033090170210200180240210230
WSpd4 5 5 9 15 4 3 9 9 10 8 10 9
WGst-- -- -- -- 19 -- -- -- -- -- -- -- --
Raw hourly METARs
KDEN 250053Z 11004KT 10SM SCT100 BKN250 24/04 A2994 RMK AO2 SLP068 T02440039 $
KDEN 250153Z 12005KT 10SM SCT100 BKN250 21/08 A2995 RMK AO2 SLP074 T02060078 $
KDEN 250253Z 12005KT 10SM FEW100 FEW160 FEW250 19/07 A2996 RMK AO2 SLP072 T01940067 51008 $
KDEN 250353Z 17009KT 10SM FEW100 FEW160 14/09 A2998 RMK AO2 SLP086 T01440089 $
KDEN 250500Z 33015G19KT 10SM FEW100 SCT130 BKN160 18/04 A3002 RMK AO2 WSHFT 0440 T01830044 $
KDEN 250553Z 09004KT 10SM SCT130 BKN160 16/06 A3001 RMK AO2 WSHFT 0440 SLP089 T01560061 10267 20144 50014 $
KDEN 250653Z 17003KT 10SM FEW130 FEW160 SCT220 14/07 A3001 RMK AO2 SLP090 T01440067 402670100 $
KDEN 250753Z 21009KT 10SM FEW120 SCT220 13/07 A3003 RMK AO2 SLP095 T01330072 $
KDEN 250853Z 20009KT 10SM FEW120 FEW220 13/07 A3001 RMK AO2 SLP093 T01280067 50001 $
KDEN 250953Z 18010KT 10SM FEW220 11/07 A3001 RMK AO2 SLP095 T01110067 $
KDEN 251053Z 24008KT 10SM FEW120 SCT150 BKN220 13/06 A3003 RMK AO2 SLP095 T01280056 $
KDEN 251153Z 21010KT 10SM FEW100 FEW150 SCT220 13/05 A3004 RMK AO2 SLP102 T01280050 10161 20106 53008 $
KDEN 251253Z 23009KT 10SM FEW180 SCT220 14/05 A3005 RMK AO2 SLP107 CCSL NW T01440050



Page loaded:  13:53 UTC  |   06:53 AM Pacific  |   07:53 AM Mountain  |   08:53 AM Central  |   09:53 AM Eastern

 

ADVISORIES

FORECASTS

FORECASTS

OBSERVATIONS

USER TOOLS

ABOUT US